CWLY

Lytton Airport

Lytton, Canada
METAR CWLY 200500Z AUTO 20013G19KT 9SM SCT140 29/11 A2988 RMK SLP115 DENSITY ALT 2500FT
Observed Flight Rules
Jun-20 @ 05:00 UTC (50 minutes ago) Visual Flight Rules
Wind Visibility Clouds
200° at 13 knots
 Gusting to 19 knots
9 miles
  • Scattered at 14,000' AGL
Temperatures Readings
Current 29°C / 84°F
Dewpoint 11°C / 52°F
Humidity 33%
Altimeter 29.88" Hg
Pressure 1011.5 hPa
Elevation 229
METAR CWLY 200500Z AUTO 20013G19KT 9SM SCT140 29/11 A2988 RMK SLP115 DENSITY ALT 2500FT
Observed Flight Rules
Jun-20 @ 05:00 UTC
(50 minutes ago)
VFR
Wind Visibility
200° at 13 knots
 Gusting to 19 knots
9 miles
Clouds
  • Scattered at 14,000' AGL
Temperature Dewpoint
29°C / 84°F 11°C / 52°F
Humidity Altimeter Pressure
33% 29.88" Hg 1011.5 hPa